Time;durP1;ratioP1;P1;durP2;ratioP2;P2;SDS_P1;SDS_P2;PMS_P1;PMS_P2;Temp;Humidity;BMP_temperature;BMP_pressure;BME280_temperature;BME280_humidity;BME280_pressure;Samples;Min_cycle;Max_cycle;Signal;HPM_P1;HPM_P2
2021/12/02 00:01:41;;;;;;;10.18;2.10;;;5.40;99.90;;;;;;5037180;28;20025;-79
2021/12/02 00:04:07;;;;;;;12.80;2.50;;;5.40;99.90;;;;;;5060170;28;20020;-79
2021/12/02 00:06:32;;;;;;;8.70;1.70;;;5.30;99.90;;;;;;5065624;28;20519;-79
2021/12/02 00:08:58;;;;;;;8.77;2.15;;;5.30;99.90;;;;;;5063161;28;20029;-79
2021/12/02 00:11:26;;;;;;;9.25;1.92;;;5.30;99.90;;;;;;5066996;28;20067;-79
2021/12/02 00:13:56;;;;;;;8.13;2.13;;;5.30;99.90;;;;;;5054178;28;20451;-79
2021/12/02 00:22:01;;;;;;;7.28;2.25;;;5.20;99.90;;;;;;5069431;28;20519;-79
2021/12/02 00:24:36;;;;;;;6.40;1.98;;;5.20;99.90;;;;;;5065574;28;20424;-79
2021/12/02 00:27:06;;;;;;;9.32;2.17;;;5.20;99.90;;;;;;5054012;28;20051;-79
2021/12/02 00:29:36;;;;;;;6.72;1.80;;;5.20;99.90;;;;;;5041712;28;20025;-79
2021/12/02 00:32:05;;;;;;;8.85;2.42;;;5.10;99.90;;;;;;5062891;28;20029;-79
2021/12/02 00:34:31;;;;;;;9.32;2.17;;;5.00;99.90;;;;;;5065296;28;20025;-80
2021/12/02 00:36:57;;;;;;;7.07;1.98;;;4.90;99.90;;;;;;5073697;28;20029;-80
2021/12/02 00:39:41;;;;;;;6.90;2.00;;;4.80;99.90;;;;;;5062711;28;20077;-79
2021/12/02 00:42:08;;;;;;;14.48;3.13;;;4.60;99.90;;;;;;5053844;28;20033;-80
2021/12/02 00:44:38;;;;;;;8.02;2.25;;;4.50;99.90;;;;;;5059504;28;20021;-80
2021/12/02 00:47:04;;;;;;;6.38;1.63;;;4.50;99.90;;;;;;5044391;28;20021;-80
2021/12/02 00:49:30;;;;;;;7.50;1.88;;;4.40;99.90;;;;;;5053582;28;20393;-80
2021/12/02 00:51:58;;;;;;;7.28;1.85;;;4.30;99.90;;;;;;5034783;28;20112;-80
2021/12/02 00:54:26;;;;;;;5.45;1.65;;;4.30;99.90;;;;;;5053258;28;20497;-80
2021/12/02 00:57:03;;;;;;;6.10;2.30;;;4.30;99.90;;;;;;5053452;28;20036;-80
2021/12/02 00:59:29;;;;;;;9.88;1.77;;;4.30;99.90;;;;;;5049537;28;20086;-80
2021/12/02 01:01:58;;;;;;;5.15;1.77;;;4.30;99.90;;;;;;5066352;28;20545;-80
2021/12/02 01:04:24;;;;;;;3.30;1.55;;;4.30;99.90;;;;;;5053355;28;20025;-80
2021/12/02 01:06:51;;;;;;;8.50;3.25;;;4.30;99.90;;;;;;5053096;28;20749;-80
2021/12/02 01:09:17;;;;;;;11.73;2.20;;;4.30;99.90;;;;;;5053344;28;20465;-80
2021/12/02 01:11:43;;;;;;;6.25;1.60;;;4.30;99.90;;;;;;5035308;28;20067;-80
2021/12/02 01:14:16;;;;;;;10.23;1.77;;;4.30;99.90;;;;;;5036518;28;20437;-80
2021/12/02 01:16:42;;;;;;;4.47;1.52;;;4.30;99.90;;;;;;5069776;28;20061;-80
2021/12/02 01:19:19;;;;;;;11.70;3.15;;;4.40;99.90;;;;;;5053327;28;20055;-80
2021/12/02 01:21:48;;;;;;;8.85;2.35;;;4.40;99.90;;;;;;5035109;28;20021;-80
2021/12/02 01:24:19;;;;;;;10.55;1.60;;;4.50;99.90;;;;;;5035201;28;20029;-80
2021/12/02 01:26:51;;;;;;;7.68;1.85;;;4.50;99.90;;;;;;5065150;28;20020;-80
2021/12/02 01:29:23;;;;;;;9.00;1.80;;;4.50;99.90;;;;;;5064292;28;20027;-80
2021/12/02 01:31:52;;;;;;;6.35;1.80;;;4.50;99.90;;;;;;5070741;28;20020;-81
2021/12/02 01:34:25;;;;;;;6.72;1.40;;;4.60;99.90;;;;;;5072964;28;20468;-80
2021/12/02 01:36:52;;;;;;;8.27;1.52;;;4.60;99.90;;;;;;5072592;28;20024;-80
2021/12/02 01:39:24;;;;;;;3.83;1.88;;;4.60;99.90;;;;;;5066722;28;20416;-80
2021/12/02 01:41:57;;;;;;;9.07;1.90;;;4.50;99.90;;;;;;5048252;28;20078;-80
2021/12/02 01:44:25;;;;;;;7.80;1.70;;;4.60;99.90;;;;;;5037398;28;20124;-80
2021/12/02 01:46:53;;;;;;;8.68;1.70;;;4.60;99.90;;;;;;5072035;28;20657;-80
2021/12/02 01:49:22;;;;;;;4.03;1.38;;;4.60;99.90;;;;;;5059194;28;20025;-80
2021/12/02 01:51:54;;;;;;;8.50;1.90;;;4.60;99.90;;;;;;5034407;28;20029;-80
2021/12/02 01:54:24;;;;;;;5.55;1.33;;;4.70;99.90;;;;;;5048164;28;20045;-80
2021/12/02 01:56:54;;;;;;;13.18;2.08;;;4.70;99.90;;;;;;5052750;28;20495;-80
2021/12/02 01:59:26;;;;;;;5.35;1.88;;;4.60;99.90;;;;;;5054156;28;20031;-80
2021/12/02 02:01:56;;;;;;;8.00;1.60;;;4.70;99.90;;;;;;5066610;28;20047;-80
2021/12/02 02:04:31;;;;;;;3.90;1.35;;;4.70;99.90;;;;;;5072689;28;20052;-81
2021/12/02 02:06:59;;;;;;;9.10;1.23;;;4.60;99.90;;;;;;5053964;28;20028;-80
2021/12/02 02:09:29;;;;;;;7.30;1.58;;;4.70;99.90;;;;;;5052492;28;20473;-80
2021/12/02 02:12:08;;;;;;;4.00;1.48;;;4.60;99.90;;;;;;5060327;28;20388;-79
2021/12/02 02:14:33;;;;;;;8.00;1.50;;;4.60;99.90;;;;;;5069293;28;20020;-80
2021/12/02 02:17:11;;;;;;;7.55;1.38;;;4.60;99.90;;;;;;5039179;28;20036;-79
2021/12/02 02:19:37;;;;;;;6.70;1.98;;;4.50;99.90;;;;;;5054295;28;20496;-80
2021/12/02 02:22:03;;;;;;;9.30;2.05;;;4.40;99.90;;;;;;5053419;28;20020;-80
2021/12/02 02:24:29;;;;;;;9.40;1.83;;;4.40;99.90;;;;;;5069711;28;20033;-79
2021/12/02 02:26:58;;;;;;;8.65;2.00;;;4.40;99.90;;;;;;5072612;28;20028;-79
2021/12/02 02:29:24;;;;;;;9.45;1.85;;;4.40;99.90;;;;;;5063616;28;20036;-80
2021/12/02 02:31:57;;;;;;;12.55;1.83;;;4.40;99.90;;;;;;5056714;28;20029;-79
2021/12/02 02:34:24;;;;;;;6.65;1.77;;;4.30;99.90;;;;;;5072311;28;20030;-80
2021/12/02 02:36:55;;;;;;;4.72;1.67;;;4.30;99.90;;;;;;5072040;28;20025;-80
2021/12/02 02:39:21;;;;;;;6.88;1.80;;;4.30;99.90;;;;;;5072331;28;20476;-79
2021/12/02 02:41:54;;;;;;;6.32;1.88;;;4.30;99.90;;;;;;5054987;28;20075;-79
2021/12/02 02:44:30;;;;;;;12.18;1.83;;;4.30;99.90;;;;;;5058889;28;20368;-79
2021/12/02 02:46:55;;;;;;;7.40;1.60;;;4.30;99.90;;;;;;5066683;28;20480;-79
2021/12/02 02:49:21;;;;;;;13.77;2.03;;;4.30;99.90;;;;;;5068354;28;20105;-79
2021/12/02 02:51:48;;;;;;;11.27;2.20;;;4.30;99.90;;;;;;5055952;28;20039;-79
2021/12/02 02:54:17;;;;;;;6.70;1.98;;;4.30;99.90;;;;;;5069441;28;20044;-79
2021/12/02 02:57:09;;;;;;;4.78;1.52;;;4.30;99.90;;;;;;5048618;28;20044;-79
2021/12/02 02:59:53;;;;;;;6.95;1.70;;;4.40;99.90;;;;;;5038554;28;20021;-79
2021/12/02 03:08:10;;;;;;;5.57;1.52;;;4.30;99.90;;;;;;5075979;28;20437;-79
2021/12/02 03:18:44;;;;;;;9.05;1.90;;;4.40;99.90;;;;;;5072056;28;20027;-79
2021/12/02 03:21:18;;;;;;;14.10;3.22;;;4.30;99.90;;;;;;5037458;28;20525;-79
2021/12/02 03:23:48;;;;;;;8.13;1.73;;;4.40;99.90;;;;;;5072455;28;20035;-80
2021/12/02 03:26:14;;;;;;;5.80;1.42;;;4.30;99.90;;;;;;5066641;28;20029;-80
2021/12/02 03:28:40;;;;;;;6.72;1.65;;;4.40;99.90;;;;;;5038679;28;20048;-79
2021/12/02 03:31:09;;;;;;;5.60;2.00;;;4.40;99.90;;;;;;5045593;28;20064;-80
2021/12/02 03:33:41;;;;;;;6.00;1.85;;;4.30;99.90;;;;;;5052537;28;20029;-79
2021/12/02 03:36:11;;;;;;;10.52;3.85;;;4.30;99.90;;;;;;5062429;28;20069;-79
2021/12/02 03:38:37;;;;;;;7.90;1.70;;;4.30;99.90;;;;;;5055146;28;20181;-80
2021/12/02 03:41:04;;;;;;;13.73;2.45;;;4.30;99.90;;;;;;5054994;28;20055;-80
2021/12/02 03:43:42;;;;;;;8.60;2.10;;;4.30;99.90;;;;;;5072769;28;20020;-79
2021/12/02 03:46:09;;;;;;;11.23;2.45;;;4.30;99.90;;;;;;5062708;28;20025;-79
2021/12/02 03:48:38;;;;;;;8.52;2.20;;;4.30;99.90;;;;;;5047390;28;20048;-79
2021/12/02 03:51:04;;;;;;;12.40;2.00;;;4.30;99.90;;;;;;5068309;28;20020;-79
2021/12/02 03:53:30;;;;;;;8.07;1.38;;;4.30;99.90;;;;;;5054163;28;20041;-79
2021/12/02 03:55:56;;;;;;;6.28;1.70;;;4.30;99.90;;;;;;5070174;28;20411;-79
2021/12/02 03:58:22;;;;;;;10.98;1.95;;;4.30;99.90;;;;;;5054712;28;20036;-79
2021/12/02 04:00:48;;;;;;;6.53;1.80;;;4.20;99.90;;;;;;5064727;28;20021;-79
2021/12/02 04:03:14;;;;;;;11.65;2.50;;;4.30;99.90;;;;;;5056675;28;20174;-79
2021/12/02 04:05:42;;;;;;;8.93;2.22;;;4.30;99.90;;;;;;5061506;28;20428;-79
2021/12/02 04:08:11;;;;;;;5.55;2.03;;;4.20;99.90;;;;;;5074515;28;20480;-79
2021/12/02 04:10:39;;;;;;;6.70;1.90;;;4.20;99.90;;;;;;5061132;28;20024;-79
2021/12/02 04:13:27;;;;;;;19.20;2.47;;;4.20;99.90;;;;;;5059327;28;20028;-79
2021/12/02 04:15:58;;;;;;;15.38;2.30;;;4.20;99.90;;;;;;5056390;28;20377;-79
2021/12/02 04:18:24;;;;;;;8.40;2.17;;;4.20;99.90;;;;;;5059374;28;20021;-80
2021/12/02 04:20:49;;;;;;;10.45;1.98;;;4.20;99.90;;;;;;5053969;28;20031;-79
2021/12/02 04:23:15;;;;;;;15.93;1.92;;;4.20;99.90;;;;;;5054262;28;20388;-80
2021/12/02 04:25:41;;;;;;;16.00;2.45;;;4.10;99.90;;;;;;5071093;28;20033;-79
2021/12/02 04:28:07;;;;;;;12.82;2.53;;;4.10;99.90;;;;;;5073084;28;20056;-79
2021/12/02 04:30:39;;;;;;;13.15;1.85;;;4.10;99.90;;;;;;5074167;28;20052;-79
2021/12/02 04:33:04;;;;;;;10.60;1.98;;;4.10;99.90;;;;;;5074195;28;20498;-79
2021/12/02 04:35:39;;;;;;;13.15;2.90;;;4.00;99.90;;;;;;5040199;28;20029;-79
2021/12/02 04:38:05;;;;;;;12.02;2.38;;;4.00;99.90;;;;;;5046010;28;20480;-79
2021/12/02 04:40:31;;;;;;;11.23;2.25;;;4.00;99.90;;;;;;5070522;28;20023;-79
2021/12/02 04:42:57;;;;;;;10.95;2.22;;;4.00;99.90;;;;;;5053899;28;20090;-79
2021/12/02 04:45:26;;;;;;;8.63;1.98;;;4.00;99.90;;;;;;5036212;28;20025;-79
2021/12/02 04:47:52;;;;;;;13.38;2.35;;;3.90;99.90;;;;;;5053900;28;20037;-79
2021/12/02 04:50:19;;;;;;;13.60;2.67;;;3.90;99.90;;;;;;5035346;28;20112;-79
2021/12/02 04:52:44;;;;;;;11.68;2.13;;;3.90;99.90;;;;;;5055478;28;20039;-79
2021/12/02 04:55:10;;;;;;;11.00;2.17;;;3.90;99.90;;;;;;5030863;28;20038;-79
2021/12/02 04:57:38;;;;;;;13.93;2.53;;;3.90;99.90;;;;;;5047141;28;20082;-79
2021/12/02 05:00:05;;;;;;;12.50;2.42;;;3.80;99.90;;;;;;5053567;28;20017;-79
2021/12/02 05:02:30;;;;;;;13.57;2.70;;;3.80;99.90;;;;;;5053807;28;20025;-79
2021/12/02 05:04:56;;;;;;;9.27;2.33;;;3.80;99.90;;;;;;5052623;28;20054;-79
2021/12/02 05:07:22;;;;;;;14.15;2.03;;;3.80;99.90;;;;;;5044655;28;20037;-80
2021/12/02 05:09:47;;;;;;;12.55;2.28;;;3.80;99.90;;;;;;5031631;28;20481;-79
2021/12/02 05:12:21;;;;;;;14.55;2.10;;;3.80;99.90;;;;;;5053043;28;20025;-79
2021/12/02 05:14:46;;;;;;;9.30;2.22;;;3.80;99.90;;;;;;5043135;28;20466;-79
2021/12/02 05:17:13;;;;;;;9.65;1.88;;;3.80;99.90;;;;;;5015469;28;20112;-79
2021/12/02 05:19:38;;;;;;;7.28;2.13;;;3.80;99.90;;;;;;5029805;28;20032;-79
2021/12/02 05:22:05;;;;;;;5.57;2.38;;;3.70;99.90;;;;;;5046661;28;20026;-79
2021/12/02 05:24:31;;;;;;;16.80;2.28;;;3.70;99.90;;;;;;5039361;28;20104;-79
2021/12/02 05:26:57;;;;;;;12.05;1.95;;;3.70;99.90;;;;;;5033053;28;20104;-79
2021/12/02 05:29:23;;;;;;;15.98;2.05;;;3.70;99.90;;;;;;5015611;28;20541;-79
2021/12/02 05:31:49;;;;;;;17.77;2.88;;;3.70;99.90;;;;;;5045396;28;20112;-79
2021/12/02 05:34:15;;;;;;;10.73;2.50;;;3.70;99.90;;;;;;5054350;28;20017;-79
2021/12/02 05:36:40;;;;;;;13.00;2.15;;;3.70;99.90;;;;;;5043577;28;20033;-79
2021/12/02 05:39:06;;;;;;;12.85;4.00;;;3.60;99.90;;;;;;5015595;28;20132;-79
2021/12/02 05:41:32;;;;;;;10.98;2.35;;;3.60;99.90;;;;;;5032947;28;20096;-79
2021/12/02 05:43:59;;;;;;;9.68;2.40;;;3.60;99.90;;;;;;5032885;28;20423;-79
2021/12/02 05:46:25;;;;;;;12.68;2.10;;;3.60;99.90;;;;;;5033239;28;20053;-79
2021/12/02 05:48:51;;;;;;;15.32;2.80;;;3.60;99.90;;;;;;5015706;28;20036;-79
2021/12/02 05:51:20;;;;;;;7.75;2.20;;;3.60;99.90;;;;;;5032597;28;20477;-79
2021/12/02 05:53:45;;;;;;;8.88;2.60;;;3.70;99.90;;;;;;5032628;28;20053;-79
2021/12/02 05:56:11;;;;;;;10.02;2.47;;;3.60;99.90;;;;;;5047235;28;20602;-79
2021/12/02 05:58:40;;;;;;;5.93;1.88;;;3.60;99.90;;;;;;5034715;28;20037;-79
2021/12/02 06:01:05;;;;;;;16.83;2.42;;;3.70;99.90;;;;;;5052767;28;20025;-79
2021/12/02 06:03:38;;;;;;;17.38;3.13;;;3.70;99.90;;;;;;5052742;28;20039;-79
2021/12/02 06:06:04;;;;;;;9.50;1.98;;;3.70;99.90;;;;;;5052231;28;20032;-79
2021/12/02 06:08:30;;;;;;;8.43;2.25;;;3.70;99.90;;;;;;5039739;28;20025;-79
2021/12/02 06:10:56;;;;;;;20.48;2.90;;;3.60;99.90;;;;;;5032766;28;20026;-79
2021/12/02 06:13:24;;;;;;;11.90;2.95;;;3.70;99.90;;;;;;5051034;28;20121;-79
2021/12/02 06:15:50;;;;;;;10.13;2.30;;;3.70;99.90;;;;;;5035281;28;20028;-79
2021/12/02 06:18:18;;;;;;;4.90;2.20;;;3.70;99.90;;;;;;5055878;28;20355;-79
2021/12/02 06:20:47;;;;;;;9.50;2.88;;;3.70;99.90;;;;;;5046796;28;20053;-79
2021/12/02 06:23:15;;;;;;;7.35;2.58;;;3.70;99.90;;;;;;5018288;28;20045;-79
2021/12/02 06:25:44;;;;;;;9.65;2.58;;;3.60;99.90;;;;;;5055212;28;20044;-79
2021/12/02 06:28:10;;;;;;;15.48;4.07;;;3.70;99.90;;;;;;5052714;28;20076;-79
2021/12/02 06:30:35;;;;;;;16.20;3.08;;;3.60;99.90;;;;;;5036631;28;20425;-79
2021/12/02 06:33:07;;;;;;;14.88;2.65;;;3.60;99.90;;;;;;5036119;28;20040;-79
2021/12/02 06:35:32;;;;;;;11.48;2.38;;;3.70;99.90;;;;;;5035906;28;20032;-79
2021/12/02 06:37:59;;;;;;;16.90;2.50;;;3.70;99.90;;;;;;5046128;28;20025;-79
2021/12/02 06:40:25;;;;;;;15.95;2.40;;;3.70;99.90;;;;;;5056211;28;20026;-79
2021/12/02 06:42:52;;;;;;;10.38;2.15;;;3.70;99.90;;;;;;5027661;28;20388;-79
2021/12/02 06:45:19;;;;;;;9.98;2.03;;;3.60;99.90;;;;;;5055782;28;20040;-79
2021/12/02 06:47:50;;;;;;;21.70;2.75;;;3.70;99.90;;;;;;5055968;28;20074;-79
2021/12/02 06:50:19;;;;;;;16.73;2.65;;;3.70;99.90;;;;;;5035685;28;20021;-79
2021/12/02 06:52:48;;;;;;;18.98;1.90;;;3.60;99.90;;;;;;5047352;28;20025;-79
2021/12/02 06:55:14;;;;;;;12.27;3.08;;;3.70;99.90;;;;;;5044612;28;20487;-79
2021/12/02 06:57:41;;;;;;;10.55;1.73;;;3.60;99.90;;;;;;5064281;28;20527;-79
2021/12/02 07:00:11;;;;;;;21.05;2.50;;;3.60;99.90;;;;;;5039742;28;20116;-79
2021/12/02 07:02:38;;;;;;;18.15;2.38;;;3.60;99.90;;;;;;5075947;28;20044;-79
2021/12/02 07:05:09;;;;;;;13.52;2.28;;;3.60;99.90;;;;;;5069362;28;20498;-79
2021/12/02 07:07:36;;;;;;;10.70;2.50;;;3.60;99.90;;;;;;5086162;28;20024;-79
2021/12/02 07:10:07;;;;;;;15.20;2.80;;;3.60;99.90;;;;;;5081091;28;20028;-79
2021/12/02 07:12:39;;;;;;;6.85;1.60;;;3.60;99.90;;;;;;5056999;28;20044;-79
2021/12/02 07:15:19;;;;;;;18.52;3.17;;;3.50;99.90;;;;;;5055564;28;20017;-79
2021/12/02 07:17:49;;;;;;;15.35;3.00;;;3.50;99.90;;;;;;5037622;28;20366;-79
2021/12/02 07:20:15;;;;;;;17.42;2.65;;;3.50;99.90;;;;;;5055227;28;20021;-79
2021/12/02 07:22:41;;;;;;;26.20;3.30;;;3.50;99.90;;;;;;5055196;28;20055;-79
2021/12/02 07:25:07;;;;;;;11.00;2.30;;;3.50;99.90;;;;;;5074632;28;20024;-79
2021/12/02 07:27:33;;;;;;;18.83;3.08;;;3.50;99.90;;;;;;5069311;28;20097;-79
2021/12/02 07:29:59;;;;;;;17.17;2.67;;;3.50;99.90;;;;;;5068712;28;20108;-79
2021/12/02 07:32:31;;;;;;;10.15;2.05;;;3.50;99.90;;;;;;5075044;28;20154;-79
2021/12/02 07:35:02;;;;;;;17.85;3.67;;;3.50;99.90;;;;;;5072785;28;20111;-79
2021/12/02 07:37:29;;;;;;;11.05;2.75;;;3.50;99.90;;;;;;5063414;28;20571;-79
2021/12/02 07:39:56;;;;;;;17.60;2.15;;;3.50;99.90;;;;;;5055104;28;20103;-79
2021/12/02 07:42:22;;;;;;;8.98;2.17;;;3.50;99.90;;;;;;5062229;28;20036;-78
2021/12/02 07:44:48;;;;;;;13.32;3.05;;;3.50;99.90;;;;;;5055044;28;20029;-79
2021/12/02 07:47:13;;;;;;;13.52;2.72;;;3.60;99.90;;;;;;5065471;28;20055;-78
2021/12/02 07:49:49;;;;;;;18.98;3.25;;;3.60;99.90;;;;;;5063073;28;20441;-79
2021/12/02 07:52:16;;;;;;;18.30;2.63;;;3.60;99.90;;;;;;5054620;28;20040;-78
2021/12/02 07:54:44;;;;;;;11.00;2.05;;;3.60;99.90;;;;;;5054458;28;20033;-79
2021/12/02 07:57:13;;;;;;;14.63;2.40;;;3.60;99.90;;;;;;5065123;28;20020;-78
2021/12/02 07:59:40;;;;;;;25.17;3.72;;;3.60;99.90;;;;;;5074480;28;20051;-79
2021/12/02 08:02:10;;;;;;;15.95;2.38;;;3.60;99.90;;;;;;5066778;28;20044;-78
2021/12/02 08:04:36;;;;;;;12.68;2.22;;;3.70;99.90;;;;;;5053862;28;20099;-79
2021/12/02 08:07:02;;;;;;;19.67;2.78;;;3.70;99.90;;;;;;5054765;28;20452;-79
2021/12/02 08:09:27;;;;;;;13.43;2.38;;;3.60;99.90;;;;;;5066196;28;20029;-79
2021/12/02 08:11:55;;;;;;;13.60;3.25;;;3.60;99.90;;;;;;5054807;28;20024;-78
2021/12/02 08:14:21;;;;;;;29.85;4.22;;;3.60;99.90;;;;;;5069211;28;20021;-79
2021/12/02 08:16:46;;;;;;;14.70;2.75;;;3.70;99.90;;;;;;5072973;28;20062;-78
2021/12/02 08:19:12;;;;;;;8.75;2.28;;;3.70;99.90;;;;;;5073892;28;20422;-78
2021/12/02 08:21:43;;;;;;;18.80;2.45;;;3.70;99.90;;;;;;5071888;28;20039;-78
2021/12/02 08:24:09;;;;;;;19.23;2.50;;;3.70;99.90;;;;;;5071460;28;20895;-78
2021/12/02 08:26:35;;;;;;;11.15;2.38;;;3.70;99.90;;;;;;5067636;28;20021;-78
2021/12/02 08:29:02;;;;;;;9.98;3.65;;;3.70;99.90;;;;;;5053828;28;20037;-78
2021/12/02 08:31:29;;;;;;;16.63;3.63;;;3.70;99.90;;;;;;5067252;28;20024;-78
2021/12/02 08:33:55;;;;;;;10.90;3.38;;;3.70;99.90;;;;;;5066742;28;20021;-79
2021/12/02 08:36:24;;;;;;;17.08;3.42;;;3.60;99.90;;;;;;5046791;28;20082;-78
2021/12/02 08:38:51;;;;;;;16.08;2.72;;;3.70;99.90;;;;;;5061356;28;20416;-78
2021/12/02 08:41:19;;;;;;;28.35;3.30;;;3.70;99.90;;;;;;5082786;28;20024;-78
2021/12/02 08:43:48;;;;;;;18.88;4.57;;;3.70;99.90;;;;;;5040641;28;20029;-79
2021/12/02 08:46:15;;;;;;;16.35;2.58;;;3.70;99.90;;;;;;5072889;28;20028;-79
2021/12/02 08:48:41;;;;;;;16.73;3.28;;;3.70;99.90;;;;;;5045318;28;20037;-79
2021/12/02 08:51:07;;;;;;;9.23;2.42;;;3.80;99.90;;;;;;5053524;28;20146;-79
2021/12/02 08:53:33;;;;;;;17.55;3.25;;;3.80;99.90;;;;;;5072118;28;20127;-78
2021/12/02 08:55:58;;;;;;;9.45;2.70;;;3.80;99.90;;;;;;5060709;28;20098;-79
2021/12/02 08:58:24;;;;;;;17.88;3.35;;;3.80;99.90;;;;;;5058409;28;20079;-79
2021/12/02 09:00:50;;;;;;;20.63;3.05;;;3.90;99.90;;;;;;5053568;28;20029;-79
2021/12/02 09:03:17;;;;;;;15.13;3.65;;;3.80;99.90;;;;;;5053258;28;20465;-78
2021/12/02 09:05:43;;;;;;;21.73;4.80;;;3.90;99.90;;;;;;5072457;28;20024;-78
2021/12/02 09:08:10;;;;;;;12.90;3.42;;;3.90;99.90;;;;;;5058486;28;20377;-79
2021/12/02 09:10:36;;;;;;;13.40;2.75;;;3.80;99.90;;;;;;5054457;28;20480;-79
2021/12/02 09:13:07;;;;;;;13.43;2.83;;;3.80;99.90;;;;;;5054234;28;20028;-79
2021/12/02 09:15:34;;;;;;;11.20;3.22;;;3.80;99.90;;;;;;5065080;28;20013;-79
2021/12/02 09:18:01;;;;;;;11.05;2.53;;;3.90;99.90;;;;;;5071362;28;20044;-79
2021/12/02 09:20:27;;;;;;;16.85;2.63;;;3.90;99.90;;;;;;5059860;28;20078;-79
2021/12/02 09:22:52;;;;;;;11.07;2.53;;;4.00;99.90;;;;;;5071114;28;20040;-79
2021/12/02 09:25:18;;;;;;;19.55;2.92;;;4.00;99.90;;;;;;5073043;28;20039;-78
2021/12/02 09:27:45;;;;;;;11.52;3.05;;;4.00;99.90;;;;;;5050519;28;20435;-79
2021/12/02 09:30:11;;;;;;;19.38;3.10;;;4.00;99.90;;;;;;5069424;28;20159;-79
2021/12/02 09:32:38;;;;;;;16.58;2.78;;;4.00;99.90;;;;;;5052633;28;20033;-79
2021/12/02 09:35:06;;;;;;;15.13;3.10;;;4.00;99.90;;;;;;5058353;28;20362;-79
2021/12/02 09:37:32;;;;;;;19.73;2.47;;;3.90;99.90;;;;;;5053211;28;20044;-79
2021/12/02 09:39:58;;;;;;;10.40;2.33;;;3.90;99.90;;;;;;5063248;28;20029;-79
2021/12/02 09:42:26;;;;;;;21.92;2.65;;;3.90;99.90;;;;;;5059543;28;20033;-79
2021/12/02 09:44:57;;;;;;;15.18;2.30;;;3.90;99.90;;;;;;5064477;28;20468;-79
2021/12/02 09:47:23;;;;;;;17.50;2.67;;;3.80;99.90;;;;;;5052697;28;20040;-79
2021/12/02 09:49:49;;;;;;;11.73;2.10;;;3.90;99.90;;;;;;5059825;28;20033;-79
2021/12/02 09:52:17;;;;;;;15.82;3.63;;;3.90;99.90;;;;;;5052562;28;20033;-79
2021/12/02 09:54:55;;;;;;;13.63;2.83;;;3.90;99.90;;;;;;5062078;28;20561;-79
2021/12/02 09:57:27;;;;;;;10.30;2.85;;;3.90;99.90;;;;;;5069199;28;20019;-79
2021/12/02 09:59:55;;;;;;;12.63;2.85;;;3.90;99.90;;;;;;5066417;28;20021;-79
2021/12/02 10:02:22;;;;;;;7.13;2.13;;;4.00;99.90;;;;;;5071479;28;20087;-78
2021/12/02 10:04:55;;;;;;;12.80;3.00;;;3.90;99.90;;;;;;5066657;28;20463;-79
2021/12/02 10:07:46;;;;;;;6.38;2.40;;;3.80;99.90;;;;;;5066916;28;20025;-79
2021/12/02 10:10:15;;;;;;;19.50;3.20;;;3.60;99.90;;;;;;5062412;28;20366;-79
2021/12/02 10:16:19;;;;;;;8.82;2.22;;;3.10;99.90;;;;;;5052574;28;20037;-79
2021/12/02 10:18:56;;;;;;;20.33;3.42;;;3.00;99.90;;;;;;5052079;28;20021;-79
2021/12/02 10:21:55;;;;;;;11.15;2.50;;;3.00;99.90;;;;;;5034217;28;20394;-79
2021/12/02 10:24:27;;;;;;;14.65;5.20;;;3.00;99.90;;;;;;5048766;28;20137;-79
2021/12/02 10:27:03;;;;;;;11.98;3.28;;;2.90;99.90;;;;;;5072185;28;20032;-79
2021/12/02 10:29:31;;;;;;;13.02;2.60;;;2.90;99.90;;;;;;5048027;28;20021;-79
2021/12/02 10:32:11;;;;;;;12.65;3.00;;;2.90;99.90;;;;;;5054141;28;20150;-79
2021/12/02 10:35:01;;;;;;;15.55;2.90;;;2.90;99.90;;;;;;5053895;28;20025;-79
2021/12/02 10:37:33;;;;;;;21.95;3.97;;;2.90;99.90;;;;;;5035747;28;20431;-79
2021/12/02 10:39:59;;;;;;;8.80;3.08;;;2.90;99.90;;;;;;5056548;28;20036;-79
2021/12/02 10:42:25;;;;;;;18.95;3.00;;;2.90;99.90;;;;;;5052197;28;20453;-79
2021/12/02 10:45:00;;;;;;;18.30;3.53;;;2.90;99.90;;;;;;5052217;28;20380;-79
2021/12/02 10:47:27;;;;;;;18.77;2.95;;;2.90;99.90;;;;;;5052415;28;20473;-79
2021/12/02 10:50:05;;;;;;;8.07;2.63;;;2.90;99.90;;;;;;5051953;28;20035;-78
2021/12/02 10:52:33;;;;;;;10.70;2.28;;;3.00;99.90;;;;;;5034341;28;20025;-79
2021/12/02 10:55:07;;;;;;;10.27;2.40;;;3.00;99.90;;;;;;5064901;28;20417;-79
2021/12/02 10:57:35;;;;;;;14.27;2.92;;;3.10;99.90;;;;;;5054167;28;20032;-79
2021/12/02 11:00:07;;;;;;;9.88;2.45;;;3.10;99.90;;;;;;5058160;28;20147;-79
2021/12/02 11:02:36;;;;;;;13.05;2.42;;;3.20;99.90;;;;;;5055894;28;20021;-79
2021/12/02 11:05:10;;;;;;;11.20;2.88;;;3.20;99.90;;;;;;5072221;28;20034;-79
2021/12/02 11:07:41;;;;;;;10.10;2.58;;;3.20;99.90;;;;;;5072878;28;20089;-79
2021/12/02 11:10:10;;;;;;;9.43;2.40;;;3.30;99.90;;;;;;5075745;28;20043;-78
2021/12/02 11:12:59;;;;;;;8.18;2.30;;;3.20;99.90;;;;;;5075007;28;20115;-79
2021/12/02 11:15:27;;;;;;;12.45;2.67;;;3.20;99.90;;;;;;5056144;28;20057;-79
2021/12/02 11:18:03;;;;;;;7.55;2.70;;;3.20;99.90;;;;;;5044746;28;20020;-79
2021/12/02 11:20:35;;;;;;;6.90;2.45;;;3.30;99.90;;;;;;5059918;28;20029;-78
2021/12/02 11:23:10;;;;;;;7.63;1.98;;;3.30;99.90;;;;;;5074497;28;20128;-79
2021/12/02 11:25:57;;;;;;;10.90;1.92;;;3.30;99.90;;;;;;5055413;28;20029;-79
2021/12/02 11:28:25;;;;;;;12.65;2.25;;;3.30;99.90;;;;;;5055268;28;20037;-79
2021/12/02 11:30:53;;;;;;;7.93;2.22;;;3.30;99.90;;;;;;5048282;28;20112;-79
2021/12/02 11:33:19;;;;;;;7.68;2.22;;;3.30;99.90;;;;;;5058771;28;20024;-78
2021/12/02 11:35:46;;;;;;;7.13;1.80;;;3.30;99.90;;;;;;5060238;28;20021;-79
2021/12/02 11:38:26;;;;;;;12.32;1.73;;;3.40;99.90;;;;;;5055181;28;20056;-79
2021/12/02 11:40:55;;;;;;;4.80;1.50;;;3.40;99.90;;;;;;5021455;28;20021;-79
2021/12/02 11:43:27;;;;;;;16.15;1.67;;;3.40;99.90;;;;;;5055193;28;20428;-79
2021/12/02 11:45:55;;;;;;;6.85;1.92;;;3.50;99.90;;;;;;5062141;28;20032;-79
2021/12/02 11:48:28;;;;;;;8.07;1.80;;;3.50;99.90;;;;;;5074396;28;20040;-78
2021/12/02 11:50:58;;;;;;;10.13;2.15;;;3.50;99.90;;;;;;5074382;28;20028;-79
2021/12/02 11:53:24;;;;;;;9.93;1.80;;;3.50;99.90;;;;;;5070973;28;20074;-79
2021/12/02 11:55:56;;;;;;;5.10;1.30;;;3.50;99.90;;;;;;5072437;28;20023;-79
2021/12/02 11:58:23;;;;;;;11.20;1.65;;;3.50;99.90;;;;;;5055955;28;20033;-79
2021/12/02 12:00:50;;;;;;;11.45;3.25;;;3.50;99.90;;;;;;5054759;28;20347;-79
2021/12/02 12:03:39;;;;;;;6.97;1.48;;;3.50;99.90;;;;;;5054461;28;20032;-79
2021/12/02 12:06:26;;;;;;;18.63;2.85;;;3.50;99.90;;;;;;5050722;28;20028;-79
2021/12/02 12:08:53;;;;;;;7.53;1.85;;;3.50;99.90;;;;;;5072211;28;20063;-79
2021/12/02 12:11:22;;;;;;;5.07;1.63;;;3.50;99.90;;;;;;5058054;28;20028;-78
2021/12/02 12:14:01;;;;;;;8.85;1.73;;;3.50;99.90;;;;;;5060273;28;20025;-79
2021/12/02 12:16:28;;;;;;;13.93;2.42;;;3.40;99.90;;;;;;5074428;28;20035;-79
2021/12/02 12:19:13;;;;;;;10.88;2.15;;;3.40;99.90;;;;;;5070909;28;20368;-79
2021/12/02 12:21:41;;;;;;;12.57;2.00;;;3.50;99.90;;;;;;5055061;28;20033;-79
2021/12/02 12:24:08;;;;;;;7.28;1.33;;;3.50;99.90;;;;;;5036670;28;20067;-78
2021/12/02 12:26:38;;;;;;;4.93;1.70;;;3.50;99.90;;;;;;5073435;28;20039;-78
2021/12/02 12:29:04;;;;;;;11.05;2.50;;;3.60;99.90;;;;;;5055609;28;20079;-79
2021/12/02 12:31:34;;;;;;;11.88;2.88;;;3.60;99.90;;;;;;5059169;28;20020;-79
2021/12/02 12:34:01;;;;;;;10.02;2.53;;;3.60;99.90;;;;;;5068525;28;20025;-79
2021/12/02 12:36:40;;;;;;;7.03;2.47;;;3.60;99.90;;;;;;5062809;28;20055;-78
2021/12/02 12:39:30;;;;;;;8.23;2.10;;;3.60;99.90;;;;;;5071305;28;20073;-78
2021/12/02 12:42:11;;;;;;;7.95;1.92;;;3.70;99.90;;;;;;5072058;28;20029;-78
2021/12/02 12:44:49;;;;;;;7.20;2.42;;;3.70;99.90;;;;;;5046866;28;20024;-78
2021/12/02 12:47:16;;;;;;;5.97;2.55;;;3.80;99.90;;;;;;5053892;28;20475;-78
2021/12/02 12:49:42;;;;;;;7.25;1.95;;;3.80;99.90;;;;;;5054526;28;20029;-78
2021/12/02 12:52:19;;;;;;;7.18;2.03;;;3.80;99.90;;;;;;5057670;28;20059;-79
2021/12/02 12:55:16;;;;;;;13.30;2.30;;;3.80;99.90;;;;;;5055948;28;20516;-79
2021/12/02 12:58:18;;;;;;;14.77;2.58;;;3.80;99.90;;;;;;5060254;28;20104;-78
2021/12/02 13:00:46;;;;;;;13.82;2.65;;;3.80;99.90;;;;;;5053976;28;20017;-79
2021/12/02 13:03:20;;;;;;;19.13;3.20;;;3.80;99.90;;;;;;5071477;28;20039;-78
2021/12/02 13:06:14;;;;;;;10.10;2.47;;;3.70;99.90;;;;;;5075087;28;20031;-78
2021/12/02 13:08:49;;;;;;;12.43;2.75;;;3.70;99.90;;;;;;5053571;28;20029;-78
2021/12/02 13:11:23;;;;;;;12.32;2.70;;;3.60;99.90;;;;;;5035420;28;20078;-78
2021/12/02 13:13:49;;;;;;;6.18;2.42;;;3.70;99.90;;;;;;5053432;28;20028;-78
2021/12/02 13:16:20;;;;;;;13.25;2.72;;;3.60;99.90;;;;;;5035739;28;20028;-79
2021/12/02 13:18:49;;;;;;;8.70;2.40;;;3.70;99.90;;;;;;5052967;28;20017;-78
2021/12/02 13:21:21;;;;;;;8.35;2.88;;;3.70;99.90;;;;;;5053248;28;20061;-79
2021/12/02 13:24:03;;;;;;;13.32;2.80;;;3.70;99.90;;;;;;5066804;28;20017;-79
2021/12/02 13:26:37;;;;;;;7.97;3.05;;;3.70;99.90;;;;;;5072851;28;20051;-78